Neosho, MO

4:39 AM CST on February 08, 2016 (GMT -0600)
APRSWXNET | | Change Station
CLOSE
Current Station
Personal Weather Station
Location: Neosho, MO
Elevation: 1023 ft
Nearby Weather Stations
Active Advisory: Wind Advisory

Elev 1023 ft 36.87 °N, 94.37 °W | Updated 23 minutes ago

Partly Cloudy
Partly Cloudy
35 °F
Feels Like 27 °F
N
11
Wind Variable Wind from NW
Gusts 22.0 mph

Today
High -- | Low -- °F
--% Chance of Precip.
Yesterday
High -- | Low -- °F
Precip. -- in
Pressure 30.01 in
Visibility 10.0 miles
Clouds Mostly Cloudy 6000 ft
Windchill 27 °F
Dew Point 21 °F
Humidity 57%
Rainfall in
Snow Depth Not available.
7:14 AM 5:50 PM
Waning Crescent, 0% visible
METAR KHFJ 081015Z AUTO 29013G17KT 10SM BKN060 00/M06 A3001 RMK AO2
Pressure 30.01 in
Visibility 10.0 miles
Clouds Mostly Cloudy 6000 ft
Windchill 27 °F
Dew Point 21 °F
Humidity 57%
Rainfall in
Snow Depth Not available.
7:14 AM 5:50 PM
Waning Crescent, 0% visible
METAR KHFJ 081015Z AUTO 29013G17KT 10SM BKN060 00/M06 A3001 RMK AO2

10-Day Weather Forecast

Almanac

Astronomy

Feb. 08, 2016 Rise Set
Actual Time
Civil Twilight
Nautical Twilight
Astronomical Twilight
Moon
Length of Visible Light
Length of Day
Tomorrow will be .
, % of the Moon is Illuminated

Today's Extremes

State Highs State Lows

Community

WunderPhotos

Upload Photos

1,891,420 photos uploaded!

WunderBlog® & News

Nearby

Air Quality

  Air Quality AQ Index Pollutant
Not available.

Snow Depth

Station Depth Elevation

Earthquake Activity

City Distance Mag. Time & Date
Minimum magnitude displayed is 2.5.

Coastal Water Temperatures

Place Temperature

Stations

Nearby Weather Stations

Station Location Temp. Windchill Dew Point Humidity Wind Precip. Elev Updated Type
                   

Watches & Warnings

Wind Advisory
Issued: 12:35 AM CST Feb. 8, 2016 – National Weather Service

... Wind Advisory remains in effect from 8 am this morning to 6 PM
CST this evening...

* timing... winds will increase early Monday morning and continue
into Monday afternoon.

* Winds... northwest winds of 25 to 35 mph with gusts of 40 to 45
mph are expected.

* Impacts... strong Crosswinds on area highways will impact
travel... especially for high profile vehicles.

Precautionary/preparedness actions...

A Wind Advisory means that winds of 35 mph are expected. Winds
this strong can make driving difficult... especially for high
profile vehicles. Use extra caution.



Foster